SKUI/UIB METAR and TAF weather

Enter ICAO airport designator
Station Type Date Time Source
SKUI METAR 2021/07/15 12:00 UTC NOAA

SKUI 151200Z 15003KT 7000 3000E BR OVC005 25/24 Q1011 REDZ RMK A2987


Station Type Date Time Source
SKUI Decoded METAR 2021/07/15 12:00 UTC NOAA

Quibdo / El Carano, Colombia (SKUI) 05-43N 076-37W
Jul 15, 2021 - 08:00 AM EDT / 2021.07.15 1200 UTC
Wind: from the SSE (150 degrees) at 3 MPH (3 KT):0
Visibility: 4 mile(s):0
Sky conditions: overcast
Weather: mist; drizzle during the past hour
Temperature: 77 F (25 C)
Dew Point: 75 F (24 C)
Relative Humidity: 94%
Pressure (altimeter): 29.85 in. Hg (1011 hPa)
ob: SKUI 151200Z 15003KT 7000 3000E BR OVC005 25/24 Q1011 REDZ RMK A2987
cycle: 12

Station Type Date Time Source
SKUI TAF UTC NOAA

Error!

Example: see airport list